sensor_id;sensor_type;location;lat;lon;timestamp;P1;durP1;ratioP1;P2;durP2;ratioP2
77051;SDS011;65980;44.898;8.602;2023-12-20T00:01:17;46.75;;;22.85;;
77051;SDS011;65980;44.898;8.602;2023-12-20T00:04:21;42.15;;;21.83;;
77051;SDS011;65980;44.898;8.602;2023-12-20T00:07:26;38.63;;;19.70;;
77051;SDS011;65980;44.898;8.602;2023-12-20T00:10:30;44.55;;;19.98;;
77051;SDS011;65980;44.898;8.602;2023-12-20T00:13:34;39.60;;;19.95;;
77051;SDS011;65980;44.898;8.602;2023-12-20T00:16:39;43.50;;;19.30;;
77051;SDS011;65980;44.898;8.602;2023-12-20T00:19:44;45.33;;;19.77;;
77051;SDS011;65980;44.898;8.602;2023-12-20T00:22:49;41.35;;;19.77;;
77051;SDS011;65980;44.898;8.602;2023-12-20T00:25:54;37.13;;;18.48;;
77051;SDS011;65980;44.898;8.602;2023-12-20T00:28:59;32.13;;;17.58;;
77051;SDS011;65980;44.898;8.602;2023-12-20T00:32:03;37.83;;;19.13;;
77051;SDS011;65980;44.898;8.602;2023-12-20T00:35:08;35.45;;;18.77;;
77051;SDS011;65980;44.898;8.602;2023-12-20T00:38:12;36.88;;;18.50;;
77051;SDS011;65980;44.898;8.602;2023-12-20T00:41:16;38.20;;;19.40;;
77051;SDS011;65980;44.898;8.602;2023-12-20T00:44:20;38.30;;;18.38;;
77051;SDS011;65980;44.898;8.602;2023-12-20T00:47:23;35.63;;;19.55;;
77051;SDS011;65980;44.898;8.602;2023-12-20T00:50:28;39.95;;;19.95;;
77051;SDS011;65980;44.898;8.602;2023-12-20T00:53:33;36.38;;;18.83;;
77051;SDS011;65980;44.898;8.602;2023-12-20T00:56:36;42.42;;;19.52;;
77051;SDS011;65980;44.898;8.602;2023-12-20T00:59:41;40.97;;;17.88;;
77051;SDS011;65980;44.898;8.602;2023-12-20T01:02:46;33.70;;;19.73;;
77051;SDS011;65980;44.898;8.602;2023-12-20T01:05:52;41.63;;;20.35;;
77051;SDS011;65980;44.898;8.602;2023-12-20T01:08:57;47.75;;;22.80;;
77051;SDS011;65980;44.898;8.602;2023-12-20T01:12:02;44.50;;;23.00;;
77051;SDS011;65980;44.898;8.602;2023-12-20T01:15:10;43.42;;;20.38;;
77051;SDS011;65980;44.898;8.602;2023-12-20T01:18:14;41.75;;;20.52;;
77051;SDS011;65980;44.898;8.602;2023-12-20T01:21:19;42.03;;;20.95;;
77051;SDS011;65980;44.898;8.602;2023-12-20T01:24:24;50.22;;;21.02;;
77051;SDS011;65980;44.898;8.602;2023-12-20T01:30:32;41.63;;;22.23;;
77051;SDS011;65980;44.898;8.602;2023-12-20T01:33:36;46.20;;;23.50;;
77051;SDS011;65980;44.898;8.602;2023-12-20T01:36:40;48.25;;;23.52;;
77051;SDS011;65980;44.898;8.602;2023-12-20T01:39:44;46.75;;;22.95;;
77051;SDS011;65980;44.898;8.602;2023-12-20T01:42:57;42.85;;;21.80;;
77051;SDS011;65980;44.898;8.602;2023-12-20T01:46:12;48.67;;;20.77;;
77051;SDS011;65980;44.898;8.602;2023-12-20T01:49:17;40.35;;;20.92;;
77051;SDS011;65980;44.898;8.602;2023-12-20T01:52:21;39.58;;;19.65;;
77051;SDS011;65980;44.898;8.602;2023-12-20T01:55:25;42.40;;;20.52;;
77051;SDS011;65980;44.898;8.602;2023-12-20T01:58:33;44.47;;;22.98;;
77051;SDS011;65980;44.898;8.602;2023-12-20T02:01:39;45.50;;;22.10;;
77051;SDS011;65980;44.898;8.602;2023-12-20T02:04:43;43.63;;;22.10;;
77051;SDS011;65980;44.898;8.602;2023-12-20T02:07:47;35.55;;;19.85;;
77051;SDS011;65980;44.898;8.602;2023-12-20T02:10:51;46.15;;;21.58;;
77051;SDS011;65980;44.898;8.602;2023-12-20T02:13:56;42.83;;;21.13;;
77051;SDS011;65980;44.898;8.602;2023-12-20T02:17:00;46.47;;;20.52;;
77051;SDS011;65980;44.898;8.602;2023-12-20T02:20:05;40.60;;;19.80;;
77051;SDS011;65980;44.898;8.602;2023-12-20T02:23:09;46.70;;;23.65;;
77051;SDS011;65980;44.898;8.602;2023-12-20T02:26:15;47.20;;;23.08;;
77051;SDS011;65980;44.898;8.602;2023-12-20T02:29:20;48.10;;;22.95;;
77051;SDS011;65980;44.898;8.602;2023-12-20T02:32:24;43.67;;;21.95;;
77051;SDS011;65980;44.898;8.602;2023-12-20T02:35:32;43.72;;;22.98;;
77051;SDS011;65980;44.898;8.602;2023-12-20T02:38:37;54.70;;;25.45;;
77051;SDS011;65980;44.898;8.602;2023-12-20T02:41:40;50.92;;;24.17;;
77051;SDS011;65980;44.898;8.602;2023-12-20T02:44:46;46.47;;;23.42;;
77051;SDS011;65980;44.898;8.602;2023-12-20T02:47:51;48.15;;;22.77;;
77051;SDS011;65980;44.898;8.602;2023-12-20T02:50:56;47.90;;;22.88;;
77051;SDS011;65980;44.898;8.602;2023-12-20T02:54:00;54.75;;;23.42;;
77051;SDS011;65980;44.898;8.602;2023-12-20T02:57:05;47.55;;;23.77;;
77051;SDS011;65980;44.898;8.602;2023-12-20T03:00:09;45.65;;;24.38;;
77051;SDS011;65980;44.898;8.602;2023-12-20T03:03:14;46.67;;;24.67;;
77051;SDS011;65980;44.898;8.602;2023-12-20T03:06:18;51.50;;;23.10;;
77051;SDS011;65980;44.898;8.602;2023-12-20T03:09:23;54.83;;;26.98;;
77051;SDS011;65980;44.898;8.602;2023-12-20T03:12:28;50.60;;;24.65;;
77051;SDS011;65980;44.898;8.602;2023-12-20T03:15:33;47.90;;;24.10;;
77051;SDS011;65980;44.898;8.602;2023-12-20T03:18:37;53.55;;;23.67;;
77051;SDS011;65980;44.898;8.602;2023-12-20T03:21:42;45.90;;;22.02;;
77051;SDS011;65980;44.898;8.602;2023-12-20T03:24:47;46.95;;;23.13;;
77051;SDS011;65980;44.898;8.602;2023-12-20T03:27:52;41.60;;;21.23;;
77051;SDS011;65980;44.898;8.602;2023-12-20T03:30:57;42.15;;;22.00;;
77051;SDS011;65980;44.898;8.602;2023-12-20T03:34:00;45.00;;;23.27;;
77051;SDS011;65980;44.898;8.602;2023-12-20T03:37:04;47.95;;;21.60;;
77051;SDS011;65980;44.898;8.602;2023-12-20T03:40:09;42.28;;;20.75;;
77051;SDS011;65980;44.898;8.602;2023-12-20T03:43:14;43.25;;;21.88;;
77051;SDS011;65980;44.898;8.602;2023-12-20T03:46:22;41.80;;;22.05;;
77051;SDS011;65980;44.898;8.602;2023-12-20T03:49:26;48.47;;;23.70;;
77051;SDS011;65980;44.898;8.602;2023-12-20T03:52:31;47.72;;;22.88;;
77051;SDS011;65980;44.898;8.602;2023-12-20T03:55:35;48.05;;;24.55;;
77051;SDS011;65980;44.898;8.602;2023-12-20T03:58:40;42.28;;;23.45;;
77051;SDS011;65980;44.898;8.602;2023-12-20T04:01:44;45.30;;;21.42;;
77051;SDS011;65980;44.898;8.602;2023-12-20T04:04:49;43.78;;;23.90;;
77051;SDS011;65980;44.898;8.602;2023-12-20T04:07:53;47.30;;;23.38;;
77051;SDS011;65980;44.898;8.602;2023-12-20T04:10:57;46.65;;;23.05;;
77051;SDS011;65980;44.898;8.602;2023-12-20T04:14:02;43.15;;;23.10;;
77051;SDS011;65980;44.898;8.602;2023-12-20T04:17:05;46.60;;;22.70;;
77051;SDS011;65980;44.898;8.602;2023-12-20T04:20:10;50.10;;;23.33;;
77051;SDS011;65980;44.898;8.602;2023-12-20T04:23:14;50.05;;;22.52;;
77051;SDS011;65980;44.898;8.602;2023-12-20T04:26:18;44.85;;;21.13;;
77051;SDS011;65980;44.898;8.602;2023-12-20T04:29:22;43.67;;;21.50;;
77051;SDS011;65980;44.898;8.602;2023-12-20T04:32:28;48.63;;;23.05;;
77051;SDS011;65980;44.898;8.602;2023-12-20T04:35:33;44.80;;;21.67;;
77051;SDS011;65980;44.898;8.602;2023-12-20T04:38:36;39.63;;;21.10;;
77051;SDS011;65980;44.898;8.602;2023-12-20T04:41:41;42.55;;;21.08;;
77051;SDS011;65980;44.898;8.602;2023-12-20T04:44:46;44.22;;;20.85;;
77051;SDS011;65980;44.898;8.602;2023-12-20T04:47:51;43.78;;;22.52;;
77051;SDS011;65980;44.898;8.602;2023-12-20T04:50:55;49.88;;;24.65;;
77051;SDS011;65980;44.898;8.602;2023-12-20T04:53:59;42.70;;;22.92;;
77051;SDS011;65980;44.898;8.602;2023-12-20T04:57:04;43.63;;;23.08;;
77051;SDS011;65980;44.898;8.602;2023-12-20T05:00:09;42.33;;;22.30;;
77051;SDS011;65980;44.898;8.602;2023-12-20T05:03:13;45.17;;;22.08;;
77051;SDS011;65980;44.898;8.602;2023-12-20T05:06:17;46.45;;;21.30;;
77051;SDS011;65980;44.898;8.602;2023-12-20T05:09:21;42.92;;;21.20;;
77051;SDS011;65980;44.898;8.602;2023-12-20T05:12:25;59.97;;;21.05;;
77051;SDS011;65980;44.898;8.602;2023-12-20T05:15:30;48.78;;;21.17;;
77051;SDS011;65980;44.898;8.602;2023-12-20T05:18:35;44.10;;;21.77;;
77051;SDS011;65980;44.898;8.602;2023-12-20T05:21:38;43.63;;;21.10;;
77051;SDS011;65980;44.898;8.602;2023-12-20T05:24:42;46.13;;;22.55;;
77051;SDS011;65980;44.898;8.602;2023-12-20T05:27:47;43.17;;;24.17;;
77051;SDS011;65980;44.898;8.602;2023-12-20T05:30:51;43.33;;;21.73;;
77051;SDS011;65980;44.898;8.602;2023-12-20T05:33:55;49.88;;;24.55;;
77051;SDS011;65980;44.898;8.602;2023-12-20T05:40:03;49.75;;;21.52;;
77051;SDS011;65980;44.898;8.602;2023-12-20T05:43:08;45.90;;;21.92;;
77051;SDS011;65980;44.898;8.602;2023-12-20T05:46:12;49.28;;;22.77;;
77051;SDS011;65980;44.898;8.602;2023-12-20T05:49:16;44.50;;;22.45;;
77051;SDS011;65980;44.898;8.602;2023-12-20T05:52:21;46.60;;;21.60;;
77051;SDS011;65980;44.898;8.602;2023-12-20T05:55:25;40.83;;;21.20;;
77051;SDS011;65980;44.898;8.602;2023-12-20T05:58:29;43.25;;;21.05;;
77051;SDS011;65980;44.898;8.602;2023-12-20T06:01:34;42.08;;;21.55;;
77051;SDS011;65980;44.898;8.602;2023-12-20T06:04:41;43.65;;;22.25;;
77051;SDS011;65980;44.898;8.602;2023-12-20T06:07:48;43.65;;;22.35;;
77051;SDS011;65980;44.898;8.602;2023-12-20T06:10:55;46.67;;;22.55;;
77051;SDS011;65980;44.898;8.602;2023-12-20T06:13:59;47.78;;;22.73;;
77051;SDS011;65980;44.898;8.602;2023-12-20T06:23:13;48.97;;;21.98;;
77051;SDS011;65980;44.898;8.602;2023-12-20T06:26:17;42.90;;;22.70;;
77051;SDS011;65980;44.898;8.602;2023-12-20T06:29:24;43.65;;;21.98;;
77051;SDS011;65980;44.898;8.602;2023-12-20T06:32:29;45.90;;;22.75;;
77051;SDS011;65980;44.898;8.602;2023-12-20T06:35:33;44.30;;;22.02;;
77051;SDS011;65980;44.898;8.602;2023-12-20T06:38:37;50.00;;;23.80;;
77051;SDS011;65980;44.898;8.602;2023-12-20T06:41:41;45.47;;;23.13;;
77051;SDS011;65980;44.898;8.602;2023-12-20T06:44:47;43.38;;;23.00;;
77051;SDS011;65980;44.898;8.602;2023-12-20T06:51:21;43.92;;;21.10;;
77051;SDS011;65980;44.898;8.602;2023-12-20T06:54:30;44.28;;;21.23;;
77051;SDS011;65980;44.898;8.602;2023-12-20T06:57:34;44.42;;;21.88;;
77051;SDS011;65980;44.898;8.602;2023-12-20T07:00:40;43.25;;;21.90;;
77051;SDS011;65980;44.898;8.602;2023-12-20T07:03:45;50.55;;;23.00;;
77051;SDS011;65980;44.898;8.602;2023-12-20T07:06:50;41.13;;;21.48;;
77051;SDS011;65980;44.898;8.602;2023-12-20T07:10:00;43.80;;;21.27;;
77051;SDS011;65980;44.898;8.602;2023-12-20T07:13:04;43.50;;;21.48;;
77051;SDS011;65980;44.898;8.602;2023-12-20T07:16:08;40.97;;;20.85;;
77051;SDS011;65980;44.898;8.602;2023-12-20T07:19:16;39.88;;;21.48;;
77051;SDS011;65980;44.898;8.602;2023-12-20T07:22:27;44.03;;;22.90;;
77051;SDS011;65980;44.898;8.602;2023-12-20T07:25:31;42.95;;;22.55;;
77051;SDS011;65980;44.898;8.602;2023-12-20T07:28:36;44.65;;;21.35;;
77051;SDS011;65980;44.898;8.602;2023-12-20T07:31:40;56.15;;;22.15;;
77051;SDS011;65980;44.898;8.602;2023-12-20T07:34:45;42.03;;;21.25;;
77051;SDS011;65980;44.898;8.602;2023-12-20T07:37:55;46.65;;;21.85;;
77051;SDS011;65980;44.898;8.602;2023-12-20T07:40:59;44.55;;;21.35;;
77051;SDS011;65980;44.898;8.602;2023-12-20T07:47:11;44.83;;;21.02;;
77051;SDS011;65980;44.898;8.602;2023-12-20T07:50:22;42.60;;;22.85;;
77051;SDS011;65980;44.898;8.602;2023-12-20T07:53:27;48.80;;;25.10;;
77051;SDS011;65980;44.898;8.602;2023-12-20T07:56:31;50.55;;;24.60;;
77051;SDS011;65980;44.898;8.602;2023-12-20T07:59:36;46.45;;;22.23;;
77051;SDS011;65980;44.898;8.602;2023-12-20T08:02:43;46.60;;;21.98;;
77051;SDS011;65980;44.898;8.602;2023-12-20T08:05:47;44.58;;;21.30;;
77051;SDS011;65980;44.898;8.602;2023-12-20T08:08:51;44.92;;;20.73;;
77051;SDS011;65980;44.898;8.602;2023-12-20T08:11:55;45.05;;;21.95;;
77051;SDS011;65980;44.898;8.602;2023-12-20T08:14:59;40.70;;;21.38;;
77051;SDS011;65980;44.898;8.602;2023-12-20T08:18:04;40.55;;;20.52;;
77051;SDS011;65980;44.898;8.602;2023-12-20T08:21:09;40.25;;;20.65;;
77051;SDS011;65980;44.898;8.602;2023-12-20T08:24:16;49.15;;;20.83;;
77051;SDS011;65980;44.898;8.602;2023-12-20T08:27:20;44.83;;;22.67;;
77051;SDS011;65980;44.898;8.602;2023-12-20T08:30:24;48.63;;;22.23;;
77051;SDS011;65980;44.898;8.602;2023-12-20T08:33:28;46.47;;;22.77;;
77051;SDS011;65980;44.898;8.602;2023-12-20T08:36:32;42.45;;;21.42;;
77051;SDS011;65980;44.898;8.602;2023-12-20T08:39:38;40.08;;;21.70;;
77051;SDS011;65980;44.898;8.602;2023-12-20T08:42:47;43.95;;;22.23;;
77051;SDS011;65980;44.898;8.602;2023-12-20T08:45:51;43.25;;;23.88;;
77051;SDS011;65980;44.898;8.602;2023-12-20T08:48:55;48.75;;;24.23;;
77051;SDS011;65980;44.898;8.602;2023-12-20T08:52:00;47.30;;;24.30;;
77051;SDS011;65980;44.898;8.602;2023-12-20T08:55:08;48.50;;;24.45;;
77051;SDS011;65980;44.898;8.602;2023-12-20T08:58:14;47.90;;;26.17;;
77051;SDS011;65980;44.898;8.602;2023-12-20T09:01:19;51.05;;;24.45;;
77051;SDS011;65980;44.898;8.602;2023-12-20T09:04:23;48.33;;;25.67;;
77051;SDS011;65980;44.898;8.602;2023-12-20T09:07:27;56.70;;;25.42;;
77051;SDS011;65980;44.898;8.602;2023-12-20T09:10:34;49.83;;;24.23;;
77051;SDS011;65980;44.898;8.602;2023-12-20T09:13:38;48.22;;;24.58;;
77051;SDS011;65980;44.898;8.602;2023-12-20T09:16:43;53.83;;;26.05;;
77051;SDS011;65980;44.898;8.602;2023-12-20T09:19:47;46.60;;;24.90;;
77051;SDS011;65980;44.898;8.602;2023-12-20T09:22:52;49.92;;;25.42;;
77051;SDS011;65980;44.898;8.602;2023-12-20T09:25:56;46.65;;;23.50;;
77051;SDS011;65980;44.898;8.602;2023-12-20T09:29:01;45.92;;;24.13;;
77051;SDS011;65980;44.898;8.602;2023-12-20T09:32:05;46.05;;;24.55;;
77051;SDS011;65980;44.898;8.602;2023-12-20T09:35:10;43.15;;;22.80;;
77051;SDS011;65980;44.898;8.602;2023-12-20T09:38:15;42.33;;;21.77;;
77051;SDS011;65980;44.898;8.602;2023-12-20T09:41:21;43.65;;;22.38;;
77051;SDS011;65980;44.898;8.602;2023-12-20T09:44:27;44.28;;;22.23;;
77051;SDS011;65980;44.898;8.602;2023-12-20T09:47:32;41.38;;;22.88;;
77051;SDS011;65980;44.898;8.602;2023-12-20T09:50:38;42.55;;;22.70;;
77051;SDS011;65980;44.898;8.602;2023-12-20T09:53:48;43.38;;;22.20;;
77051;SDS011;65980;44.898;8.602;2023-12-20T09:56:54;42.92;;;23.23;;
77051;SDS011;65980;44.898;8.602;2023-12-20T09:59:59;49.75;;;23.42;;
77051;SDS011;65980;44.898;8.602;2023-12-20T10:03:03;45.30;;;23.10;;
77051;SDS011;65980;44.898;8.602;2023-12-20T10:06:10;42.63;;;22.90;;
77051;SDS011;65980;44.898;8.602;2023-12-20T10:09:15;41.95;;;21.90;;
77051;SDS011;65980;44.898;8.602;2023-12-20T10:12:19;40.97;;;22.25;;
77051;SDS011;65980;44.898;8.602;2023-12-20T10:15:23;45.38;;;23.05;;
77051;SDS011;65980;44.898;8.602;2023-12-20T10:18:28;42.80;;;21.77;;
77051;SDS011;65980;44.898;8.602;2023-12-20T10:21:37;49.47;;;23.52;;
77051;SDS011;65980;44.898;8.602;2023-12-20T10:24:42;45.60;;;24.85;;
77051;SDS011;65980;44.898;8.602;2023-12-20T10:27:46;45.70;;;25.42;;
77051;SDS011;65980;44.898;8.602;2023-12-20T10:30:51;55.85;;;27.90;;
77051;SDS011;65980;44.898;8.602;2023-12-20T10:33:59;60.28;;;27.77;;
77051;SDS011;65980;44.898;8.602;2023-12-20T10:37:05;53.33;;;28.05;;
77051;SDS011;65980;44.898;8.602;2023-12-20T10:40:10;64.13;;;28.92;;
77051;SDS011;65980;44.898;8.602;2023-12-20T10:43:17;62.13;;;29.20;;
77051;SDS011;65980;44.898;8.602;2023-12-20T10:46:22;57.78;;;30.25;;
77051;SDS011;65980;44.898;8.602;2023-12-20T10:49:28;52.28;;;28.98;;
77051;SDS011;65980;44.898;8.602;2023-12-20T10:52:34;50.15;;;27.25;;
77051;SDS011;65980;44.898;8.602;2023-12-20T10:55:39;46.15;;;26.17;;
77051;SDS011;65980;44.898;8.602;2023-12-20T10:58:45;50.10;;;25.73;;
77051;SDS011;65980;44.898;8.602;2023-12-20T11:01:52;45.35;;;25.77;;
77051;SDS011;65980;44.898;8.602;2023-12-20T11:05:05;44.35;;;26.08;;
77051;SDS011;65980;44.898;8.602;2023-12-20T11:08:20;48.50;;;26.13;;
77051;SDS011;65980;44.898;8.602;2023-12-20T11:11:34;56.83;;;26.10;;
77051;SDS011;65980;44.898;8.602;2023-12-20T11:14:45;46.40;;;25.90;;
77051;SDS011;65980;44.898;8.602;2023-12-20T11:17:56;52.28;;;27.15;;
77051;SDS011;65980;44.898;8.602;2023-12-20T11:21:01;51.95;;;26.65;;
77051;SDS011;65980;44.898;8.602;2023-12-20T11:24:15;52.95;;;25.98;;
77051;SDS011;65980;44.898;8.602;2023-12-20T11:27:20;48.83;;;27.35;;
77051;SDS011;65980;44.898;8.602;2023-12-20T11:30:25;50.65;;;26.65;;
77051;SDS011;65980;44.898;8.602;2023-12-20T11:33:55;48.72;;;25.88;;
77051;SDS011;65980;44.898;8.602;2023-12-20T11:37:17;54.92;;;25.98;;
77051;SDS011;65980;44.898;8.602;2023-12-20T11:40:27;55.15;;;28.90;;
77051;SDS011;65980;44.898;8.602;2023-12-20T11:43:32;53.47;;;28.58;;
77051;SDS011;65980;44.898;8.602;2023-12-20T11:46:45;50.23;;;27.70;;
77051;SDS011;65980;44.898;8.602;2023-12-20T11:49:49;55.00;;;27.05;;
77051;SDS011;65980;44.898;8.602;2023-12-20T11:52:55;46.28;;;24.63;;
77051;SDS011;65980;44.898;8.602;2023-12-20T11:56:00;50.85;;;25.77;;
77051;SDS011;65980;44.898;8.602;2023-12-20T11:59:08;43.17;;;24.92;;
77051;SDS011;65980;44.898;8.602;2023-12-20T12:02:14;43.83;;;24.48;;
77051;SDS011;65980;44.898;8.602;2023-12-20T12:05:19;47.45;;;25.52;;
77051;SDS011;65980;44.898;8.602;2023-12-20T12:08:23;46.92;;;24.02;;
77051;SDS011;65980;44.898;8.602;2023-12-20T12:11:33;46.30;;;24.80;;
77051;SDS011;65980;44.898;8.602;2023-12-20T12:14:38;43.50;;;24.60;;
77051;SDS011;65980;44.898;8.602;2023-12-20T12:17:44;43.55;;;25.30;;
77051;SDS011;65980;44.898;8.602;2023-12-20T12:21:00;41.58;;;24.67;;
77051;SDS011;65980;44.898;8.602;2023-12-20T12:24:09;45.67;;;24.63;;
77051;SDS011;65980;44.898;8.602;2023-12-20T12:27:15;43.80;;;24.70;;
77051;SDS011;65980;44.898;8.602;2023-12-20T12:30:20;45.20;;;25.10;;
77051;SDS011;65980;44.898;8.602;2023-12-20T12:33:25;45.88;;;24.38;;
77051;SDS011;65980;44.898;8.602;2023-12-20T12:36:30;43.25;;;23.92;;
77051;SDS011;65980;44.898;8.602;2023-12-20T12:39:34;42.55;;;24.63;;
77051;SDS011;65980;44.898;8.602;2023-12-20T12:42:44;40.95;;;23.05;;
77051;SDS011;65980;44.898;8.602;2023-12-20T12:46:05;40.00;;;23.70;;
77051;SDS011;65980;44.898;8.602;2023-12-20T12:49:12;41.17;;;23.98;;
77051;SDS011;65980;44.898;8.602;2023-12-20T12:52:17;42.83;;;24.35;;
77051;SDS011;65980;44.898;8.602;2023-12-20T12:55:23;44.53;;;24.30;;
77051;SDS011;65980;44.898;8.602;2023-12-20T12:58:28;40.50;;;22.05;;
77051;SDS011;65980;44.898;8.602;2023-12-20T13:01:33;39.13;;;22.33;;
77051;SDS011;65980;44.898;8.602;2023-12-20T13:04:38;40.55;;;22.17;;
77051;SDS011;65980;44.898;8.602;2023-12-20T13:07:43;42.45;;;23.30;;
77051;SDS011;65980;44.898;8.602;2023-12-20T13:10:50;41.53;;;23.48;;
77051;SDS011;65980;44.898;8.602;2023-12-20T13:13:55;42.90;;;23.83;;
77051;SDS011;65980;44.898;8.602;2023-12-20T13:17:00;42.13;;;22.92;;
77051;SDS011;65980;44.898;8.602;2023-12-20T13:20:05;44.28;;;23.80;;
77051;SDS011;65980;44.898;8.602;2023-12-20T13:23:13;43.15;;;22.92;;
77051;SDS011;65980;44.898;8.602;2023-12-20T13:26:18;38.00;;;22.73;;
77051;SDS011;65980;44.898;8.602;2023-12-20T13:29:23;49.95;;;22.08;;
77051;SDS011;65980;44.898;8.602;2023-12-20T13:32:28;37.28;;;21.92;;
77051;SDS011;65980;44.898;8.602;2023-12-20T13:35:32;36.40;;;22.48;;
77051;SDS011;65980;44.898;8.602;2023-12-20T13:38:36;38.67;;;22.27;;
77051;SDS011;65980;44.898;8.602;2023-12-20T13:41:41;39.47;;;23.05;;
77051;SDS011;65980;44.898;8.602;2023-12-20T13:44:45;36.75;;;23.40;;
77051;SDS011;65980;44.898;8.602;2023-12-20T13:47:49;40.00;;;21.80;;
77051;SDS011;65980;44.898;8.602;2023-12-20T13:50:57;37.65;;;22.13;;
77051;SDS011;65980;44.898;8.602;2023-12-20T13:54:02;36.60;;;21.85;;
77051;SDS011;65980;44.898;8.602;2023-12-20T14:00:37;49.63;;;27.95;;
77051;SDS011;65980;44.898;8.602;2023-12-20T14:03:42;50.08;;;28.05;;
77051;SDS011;65980;44.898;8.602;2023-12-20T14:06:45;45.63;;;26.98;;
77051;SDS011;65980;44.898;8.602;2023-12-20T14:09:50;46.35;;;27.80;;
77051;SDS011;65980;44.898;8.602;2023-12-20T14:12:55;52.00;;;28.02;;
77051;SDS011;65980;44.898;8.602;2023-12-20T14:15:59;47.83;;;26.63;;
77051;SDS011;65980;44.898;8.602;2023-12-20T14:19:06;53.75;;;27.17;;
77051;SDS011;65980;44.898;8.602;2023-12-20T14:22:11;45.28;;;26.90;;
77051;SDS011;65980;44.898;8.602;2023-12-20T14:25:21;43.95;;;25.33;;
77051;SDS011;65980;44.898;8.602;2023-12-20T14:28:29;42.53;;;26.42;;
77051;SDS011;65980;44.898;8.602;2023-12-20T14:31:36;48.45;;;26.73;;
77051;SDS011;65980;44.898;8.602;2023-12-20T14:34:55;46.65;;;27.23;;
77051;SDS011;65980;44.898;8.602;2023-12-20T14:37:59;49.80;;;25.83;;
77051;SDS011;65980;44.898;8.602;2023-12-20T14:41:04;46.10;;;25.90;;
77051;SDS011;65980;44.898;8.602;2023-12-20T14:44:09;45.00;;;26.00;;
77051;SDS011;65980;44.898;8.602;2023-12-20T14:47:20;42.60;;;25.92;;
77051;SDS011;65980;44.898;8.602;2023-12-20T14:53:43;46.33;;;26.65;;
77051;SDS011;65980;44.898;8.602;2023-12-20T14:56:48;59.05;;;27.65;;
77051;SDS011;65980;44.898;8.602;2023-12-20T14:59:55;47.03;;;27.50;;
77051;SDS011;65980;44.898;8.602;2023-12-20T15:03:22;51.05;;;27.05;;
77051;SDS011;65980;44.898;8.602;2023-12-20T15:06:26;48.35;;;26.80;;
77051;SDS011;65980;44.898;8.602;2023-12-20T15:09:31;44.35;;;26.30;;
77051;SDS011;65980;44.898;8.602;2023-12-20T15:12:36;51.67;;;29.25;;
77051;SDS011;65980;44.898;8.602;2023-12-20T15:15:41;46.20;;;27.08;;
77051;SDS011;65980;44.898;8.602;2023-12-20T15:18:47;45.03;;;25.42;;
77051;SDS011;65980;44.898;8.602;2023-12-20T15:21:52;40.55;;;24.85;;
77051;SDS011;65980;44.898;8.602;2023-12-20T15:28:03;46.10;;;25.13;;
77051;SDS011;65980;44.898;8.602;2023-12-20T15:31:07;45.60;;;25.70;;
77051;SDS011;65980;44.898;8.602;2023-12-20T15:34:14;45.85;;;27.00;;
77051;SDS011;65980;44.898;8.602;2023-12-20T15:37:18;49.28;;;28.25;;
77051;SDS011;65980;44.898;8.602;2023-12-20T15:40:22;40.75;;;25.35;;
77051;SDS011;65980;44.898;8.602;2023-12-20T15:43:27;45.72;;;25.60;;
77051;SDS011;65980;44.898;8.602;2023-12-20T15:46:31;47.47;;;26.00;;
77051;SDS011;65980;44.898;8.602;2023-12-20T15:49:36;45.25;;;26.50;;
77051;SDS011;65980;44.898;8.602;2023-12-20T15:52:40;50.95;;;26.20;;
77051;SDS011;65980;44.898;8.602;2023-12-20T15:55:47;55.13;;;29.20;;
77051;SDS011;65980;44.898;8.602;2023-12-20T15:58:52;50.65;;;29.15;;
77051;SDS011;65980;44.898;8.602;2023-12-20T16:02:02;55.63;;;32.38;;
77051;SDS011;65980;44.898;8.602;2023-12-20T16:05:17;57.70;;;32.70;;
77051;SDS011;65980;44.898;8.602;2023-12-20T16:08:22;55.00;;;29.92;;
77051;SDS011;65980;44.898;8.602;2023-12-20T16:11:29;55.70;;;30.35;;
77051;SDS011;65980;44.898;8.602;2023-12-20T16:14:40;51.75;;;29.80;;
77051;SDS011;65980;44.898;8.602;2023-12-20T16:17:47;56.88;;;30.58;;
77051;SDS011;65980;44.898;8.602;2023-12-20T16:20:53;54.72;;;30.48;;
77051;SDS011;65980;44.898;8.602;2023-12-20T16:23:57;54.97;;;31.45;;
77051;SDS011;65980;44.898;8.602;2023-12-20T16:27:04;59.90;;;30.85;;
77051;SDS011;65980;44.898;8.602;2023-12-20T16:30:09;58.83;;;31.20;;
77051;SDS011;65980;44.898;8.602;2023-12-20T16:33:17;60.53;;;32.83;;
77051;SDS011;65980;44.898;8.602;2023-12-20T16:36:21;53.80;;;30.95;;
77051;SDS011;65980;44.898;8.602;2023-12-20T16:39:26;55.15;;;31.38;;
77051;SDS011;65980;44.898;8.602;2023-12-20T16:42:32;59.00;;;32.35;;
77051;SDS011;65980;44.898;8.602;2023-12-20T16:45:37;53.38;;;31.40;;
77051;SDS011;65980;44.898;8.602;2023-12-20T16:48:53;65.65;;;32.60;;
77051;SDS011;65980;44.898;8.602;2023-12-20T16:51:57;62.83;;;31.73;;
77051;SDS011;65980;44.898;8.602;2023-12-20T16:55:04;56.28;;;30.63;;
77051;SDS011;65980;44.898;8.602;2023-12-20T16:58:10;60.95;;;32.15;;
77051;SDS011;65980;44.898;8.602;2023-12-20T17:01:15;57.78;;;30.63;;
77051;SDS011;65980;44.898;8.602;2023-12-20T17:04:20;57.17;;;31.90;;
77051;SDS011;65980;44.898;8.602;2023-12-20T17:07:26;54.45;;;30.65;;
77051;SDS011;65980;44.898;8.602;2023-12-20T17:10:31;64.18;;;30.17;;
77051;SDS011;65980;44.898;8.602;2023-12-20T17:13:35;73.63;;;34.83;;
77051;SDS011;65980;44.898;8.602;2023-12-20T17:16:40;74.30;;;37.00;;
77051;SDS011;65980;44.898;8.602;2023-12-20T17:19:45;78.20;;;37.10;;
77051;SDS011;65980;44.898;8.602;2023-12-20T17:22:49;74.97;;;34.97;;
77051;SDS011;65980;44.898;8.602;2023-12-20T17:25:53;71.05;;;35.95;;
77051;SDS011;65980;44.898;8.602;2023-12-20T17:28:58;81.80;;;38.95;;
77051;SDS011;65980;44.898;8.602;2023-12-20T17:32:02;74.97;;;38.22;;
77051;SDS011;65980;44.898;8.602;2023-12-20T17:35:09;63.97;;;34.65;;
77051;SDS011;65980;44.898;8.602;2023-12-20T17:38:13;66.97;;;35.72;;
77051;SDS011;65980;44.898;8.602;2023-12-20T17:41:18;66.18;;;35.67;;
77051;SDS011;65980;44.898;8.602;2023-12-20T17:44:23;67.43;;;33.58;;
77051;SDS011;65980;44.898;8.602;2023-12-20T17:47:31;64.00;;;33.08;;
77051;SDS011;65980;44.898;8.602;2023-12-20T17:50:35;64.38;;;33.65;;
77051;SDS011;65980;44.898;8.602;2023-12-20T17:53:48;65.00;;;34.03;;
77051;SDS011;65980;44.898;8.602;2023-12-20T17:56:54;59.22;;;32.30;;
77051;SDS011;65980;44.898;8.602;2023-12-20T18:00:10;63.50;;;30.92;;
77051;SDS011;65980;44.898;8.602;2023-12-20T18:03:24;53.95;;;32.13;;
77051;SDS011;65980;44.898;8.602;2023-12-20T18:06:29;57.95;;;32.40;;
77051;SDS011;65980;44.898;8.602;2023-12-20T18:09:34;66.97;;;34.92;;
77051;SDS011;65980;44.898;8.602;2023-12-20T18:12:39;64.38;;;33.78;;
77051;SDS011;65980;44.898;8.602;2023-12-20T18:15:44;67.55;;;38.20;;
77051;SDS011;65980;44.898;8.602;2023-12-20T18:18:49;83.30;;;43.95;;
77051;SDS011;65980;44.898;8.602;2023-12-20T18:21:54;85.07;;;41.97;;
77051;SDS011;65980;44.898;8.602;2023-12-20T18:25:00;88.65;;;42.40;;
77051;SDS011;65980;44.898;8.602;2023-12-20T18:28:05;90.53;;;48.08;;
77051;SDS011;65980;44.898;8.602;2023-12-20T18:31:10;80.10;;;45.38;;
77051;SDS011;65980;44.898;8.602;2023-12-20T18:34:15;85.43;;;43.20;;